»·PEaware :: HA-BAL 1L1-2O7

HA-BAL :: 1L1-2O7

FLIGHT INFORMATION

Flight Status: Arrived
Operator: Privately registered:
Hungary
More flights under this callsign
Pilot: Balázs S. (13701)
Aircraft: BEECH AIRCRAFT BARON
(BE58)
More flights by this aircraft type
Origin: 1L1 Lincoln Co
United States
Destination: 2O7 Independence
United States
More flights between these airports :: More routes between these airports
Route: STOFF
File this flight plan on PilotEdge
Remarks: Alphabet
Altitude:
(Current/Filed)
10,500ft
Speed:
(Current/Filed)
160kts
Departed: 05-Feb-17 09:19 AM
Arrived: 05-Feb-17 10:29 AM
Distance/Time
Traveled:
190nm/1:10
Distance/Time
To Go:
Arrived

Flight Plot

Page will automatically refresh every two minutes.

Flight plan parsing failed; only flown route is shown


Map Options




Map Legend


Flown Route
Filed Route
Departure Airport
Arrival Airport
Navaid (VOR, NDB)
Fix

Horizontal Profiles

Position Reports

Time Latitude Longitude Heading Altitude Ground
Speed
05-Feb-17 09:10 37.783558 -114.423163 96 4831ft 0kts
05-Feb-17 09:11 37.783527 -114.423240 14 4831ft 0kts
05-Feb-17 09:12 37.783527 -114.423240 14 4831ft 0kts
05-Feb-17 09:13 37.783527 -114.423240 14 4831ft 0kts
05-Feb-17 09:14 37.783527 -114.423240 14 4831ft 0kts
05-Feb-17 09:15 37.783527 -114.423240 14 4831ft 0kts
05-Feb-17 09:16 37.782972 -114.422225 182 4831ft 16kts
05-Feb-17 09:17 37.781260 -114.421672 91 4831ft 0kts
05-Feb-17 09:18 37.781259 -114.421608 91 4831ft 3kts
05-Feb-17 09:19 37.798013 -114.420412 1 5268ft 129kts
05-Feb-17 09:20 37.807207 -114.448934 228 6780ft 128kts
05-Feb-17 09:21 37.784628 -114.484657 241 8275ft 134kts
05-Feb-17 09:22 37.771328 -114.528854 254 9779ft 136kts
05-Feb-17 09:23 37.761621 -114.578653 257 10516ft 166kts
05-Feb-17 09:24 37.751393 -114.638637 258 10511ft 180kts
05-Feb-17 09:25 37.741381 -114.698595 257 10510ft 184kts
05-Feb-17 09:26 37.730679 -114.763177 256 10513ft 200kts
05-Feb-17 09:27 37.719787 -114.830363 246 10509ft 190kts
05-Feb-17 09:28 37.707850 -114.894093 254 10512ft 186kts
05-Feb-17 09:29 37.697528 -114.957807 258 10509ft 185kts
05-Feb-17 09:30 37.686930 -115.021704 257 10470ft 187kts
05-Feb-17 09:31 37.676085 -115.085477 257 10455ft 186kts
05-Feb-17 09:32 37.665201 -115.149314 257 10455ft 185kts
05-Feb-17 09:33 37.653904 -115.213074 261 10498ft 195kts
05-Feb-17 09:34 37.642856 -115.280425 254 10502ft 193kts
05-Feb-17 09:35 37.631369 -115.345411 258 10500ft 187kts
05-Feb-17 09:36 37.620489 -115.409225 257 10501ft 186kts
05-Feb-17 09:37 37.609473 -115.472831 257 10501ft 185kts
05-Feb-17 09:38 37.598378 -115.536581 257 10501ft 185kts
05-Feb-17 09:39 37.587309 -115.599961 257 10501ft 185kts
05-Feb-17 09:40 37.577061 -115.658443 257 10501ft 185kts
05-Feb-17 09:41 37.565911 -115.721870 257 10501ft 185kts
05-Feb-17 09:42 37.554708 -115.785417 257 10501ft 185kts
05-Feb-17 09:43 37.543469 -115.848979 257 10474ft 186kts
05-Feb-17 09:44 37.532188 -115.912444 257 10475ft 185kts
05-Feb-17 09:45 37.520978 -115.975367 257 10474ft 185kts
05-Feb-17 09:46 37.509606 -116.038342 258 10501ft 185kts
05-Feb-17 09:47 37.498334 -116.101767 258 10501ft 187kts
05-Feb-17 09:48 37.486845 -116.165690 258 10501ft 187kts
05-Feb-17 09:49 37.475280 -116.229771 258 10501ft 187kts
05-Feb-17 09:50 37.463717 -116.293625 258 10501ft 187kts
05-Feb-17 09:51 37.452119 -116.357462 258 10501ft 187kts
05-Feb-17 09:52 37.440453 -116.421482 258 10501ft 187kts
05-Feb-17 09:53 37.428779 -116.485271 258 10506ft 187kts
05-Feb-17 09:54 37.415841 -116.548848 248 10513ft 188kts
05-Feb-17 09:55 37.394994 -116.608383 247 10498ft 189kts
05-Feb-17 09:56 37.377747 -116.656999 247 10510ft 188kts
05-Feb-17 09:57 37.356417 -116.717295 246 10510ft 188kts
05-Feb-17 09:58 37.335282 -116.777028 246 10510ft 188kts
05-Feb-17 09:59 37.313872 -116.837168 246 10510ft 188kts
05-Feb-17 10:00 37.292450 -116.897324 246 10510ft 189kts
05-Feb-17 10:01 37.270998 -116.957451 246 10510ft 188kts
05-Feb-17 10:02 37.249571 -117.017396 246 10510ft 189kts
05-Feb-17 10:03 37.228081 -117.077386 246 10511ft 189kts
05-Feb-17 10:04 37.206507 -117.137506 246 10537ft 187kts
05-Feb-17 10:05 37.186209 -117.193918 247 11020ft 171kts
05-Feb-17 10:06 37.167031 -117.247170 247 11512ft 164kts
05-Feb-17 10:07 37.150343 -117.299582 257 12008ft 160kts
05-Feb-17 10:08 37.138825 -117.360260 258 11624ft 193kts
05-Feb-17 10:09 37.126170 -117.427929 258 11144ft 203kts
05-Feb-17 10:10 37.115495 -117.497749 262 10654ft 205kts
05-Feb-17 10:11 37.106582 -117.566634 262 10518ft 194kts
05-Feb-17 10:12 37.069118 -117.611716 216 10520ft 192kts
05-Feb-17 10:13 37.028562 -117.650724 225 10521ft 190kts
05-Feb-17 10:14 37.005062 -117.694280 244 10522ft 189kts
05-Feb-17 10:15 36.987970 -117.739995 246 10520ft 189kts
05-Feb-17 10:16 36.987970 -117.739995 246 10520ft 189kts
05-Feb-17 10:17 36.977050 -117.769775 246 10520ft 189kts
05-Feb-17 10:18 36.955153 -117.829422 246 10520ft 189kts
05-Feb-17 10:19 36.933692 -117.887775 246 10520ft 189kts
05-Feb-17 10:20 36.911792 -117.947206 246 10523ft 189kts
05-Feb-17 10:21 36.895042 -117.992579 246 10519ft 189kts
05-Feb-17 10:22 36.873262 -118.051505 246 10086ft 198kts
05-Feb-17 10:23 36.849758 -118.114859 246 8586ft 191kts
05-Feb-17 10:24 36.874860 -118.157975 332 7067ft 170kts
05-Feb-17 10:25 36.882639 -118.199912 198 5567ft 174kts
05-Feb-17 10:26 36.840708 -118.180849 152 4706ft 140kts
05-Feb-17 10:27 36.806690 -118.170084 201 4701ft 125kts
05-Feb-17 10:28 36.805259 -118.199454 340 4102ft 106kts
05-Feb-17 10:29 36.816641 -118.205122 153 3911ft 15kts
05-Feb-17 10:30 36.811074 -118.202225 155 3911ft 21kts
05-Feb-17 10:31 36.810039 -118.203353 320 3911ft 0kts
05-Feb-17 10:32 36.810039 -118.203353 320 3911ft 0kts
05-Feb-17 10:33 36.810039 -118.203353 320 3911ft 0kts

Navigation Log

Ident Type
Flight plan parsing failed, navigation log unavailable